sensor_id;sensor_type;location;lat;lon;timestamp;P1;durP1;ratioP1;P2;durP2;ratioP2
54977;SDS011;40873;47.522;19.106;2023-04-25T00:00:14;5.68;;;1.98;;
54977;SDS011;40873;47.522;19.106;2023-04-25T00:03:01;2.88;;;1.48;;
54977;SDS011;40873;47.522;19.106;2023-04-25T00:05:28;2.90;;;1.50;;
54977;SDS011;40873;47.522;19.106;2023-04-25T00:07:55;2.42;;;1.27;;
54977;SDS011;40873;47.522;19.106;2023-04-25T00:10:24;3.13;;;1.40;;
54977;SDS011;40873;47.522;19.106;2023-04-25T00:12:50;6.47;;;1.45;;
54977;SDS011;40873;47.522;19.106;2023-04-25T00:15:18;4.95;;;1.40;;
54977;SDS011;40873;47.522;19.106;2023-04-25T00:17:45;2.75;;;1.30;;
54977;SDS011;40873;47.522;19.106;2023-04-25T00:20:12;2.65;;;1.40;;
54977;SDS011;40873;47.522;19.106;2023-04-25T00:22:39;2.30;;;1.30;;
54977;SDS011;40873;47.522;19.106;2023-04-25T00:25:06;4.15;;;1.38;;
54977;SDS011;40873;47.522;19.106;2023-04-25T00:27:34;2.90;;;1.50;;
54977;SDS011;40873;47.522;19.106;2023-04-25T00:30:01;3.72;;;1.58;;
54977;SDS011;40873;47.522;19.106;2023-04-25T00:32:28;3.90;;;1.75;;
54977;SDS011;40873;47.522;19.106;2023-04-25T00:34:55;3.03;;;2.00;;
54977;SDS011;40873;47.522;19.106;2023-04-25T00:37:24;5.03;;;1.63;;
54977;SDS011;40873;47.522;19.106;2023-04-25T00:39:51;2.30;;;1.50;;
54977;SDS011;40873;47.522;19.106;2023-04-25T00:42:20;2.67;;;1.58;;
54977;SDS011;40873;47.522;19.106;2023-04-25T00:44:50;3.00;;;1.77;;
54977;SDS011;40873;47.522;19.106;2023-04-25T00:47:18;3.22;;;1.85;;
54977;SDS011;40873;47.522;19.106;2023-04-25T00:49:46;3.40;;;2.10;;
54977;SDS011;40873;47.522;19.106;2023-04-25T00:52:13;3.85;;;1.85;;
54977;SDS011;40873;47.522;19.106;2023-04-25T00:54:40;2.80;;;1.80;;
54977;SDS011;40873;47.522;19.106;2023-04-25T00:57:07;3.88;;;2.28;;
54977;SDS011;40873;47.522;19.106;2023-04-25T00:59:34;3.70;;;1.92;;
54977;SDS011;40873;47.522;19.106;2023-04-25T01:02:04;3.00;;;1.80;;
54977;SDS011;40873;47.522;19.106;2023-04-25T01:04:31;4.45;;;2.17;;
54977;SDS011;40873;47.522;19.106;2023-04-25T01:06:58;3.15;;;1.77;;
54977;SDS011;40873;47.522;19.106;2023-04-25T01:09:26;3.88;;;2.28;;
54977;SDS011;40873;47.522;19.106;2023-04-25T01:11:53;3.72;;;1.90;;
54977;SDS011;40873;47.522;19.106;2023-04-25T01:14:21;4.88;;;2.60;;
54977;SDS011;40873;47.522;19.106;2023-04-25T01:16:48;4.70;;;2.08;;
54977;SDS011;40873;47.522;19.106;2023-04-25T01:19:16;3.25;;;2.38;;
54977;SDS011;40873;47.522;19.106;2023-04-25T01:21:44;4.43;;;2.35;;
54977;SDS011;40873;47.522;19.106;2023-04-25T01:24:12;4.95;;;2.08;;
54977;SDS011;40873;47.522;19.106;2023-04-25T01:26:40;3.78;;;2.92;;
54977;SDS011;40873;47.522;19.106;2023-04-25T01:29:11;5.88;;;2.15;;
54977;SDS011;40873;47.522;19.106;2023-04-25T01:31:38;4.70;;;2.40;;
54977;SDS011;40873;47.522;19.106;2023-04-25T01:34:06;4.18;;;2.60;;
54977;SDS011;40873;47.522;19.106;2023-04-25T01:36:32;3.17;;;2.10;;
54977;SDS011;40873;47.522;19.106;2023-04-25T01:39:00;6.03;;;3.28;;
54977;SDS011;40873;47.522;19.106;2023-04-25T01:41:28;5.78;;;2.60;;
54977;SDS011;40873;47.522;19.106;2023-04-25T01:43:55;5.70;;;3.10;;
54977;SDS011;40873;47.522;19.106;2023-04-25T01:46:22;4.68;;;3.03;;
54977;SDS011;40873;47.522;19.106;2023-04-25T01:48:49;4.60;;;2.53;;
54977;SDS011;40873;47.522;19.106;2023-04-25T01:51:16;4.55;;;2.13;;
54977;SDS011;40873;47.522;19.106;2023-04-25T01:53:44;5.03;;;3.15;;
54977;SDS011;40873;47.522;19.106;2023-04-25T01:56:11;4.30;;;2.47;;
54977;SDS011;40873;47.522;19.106;2023-04-25T01:58:38;3.60;;;2.40;;
54977;SDS011;40873;47.522;19.106;2023-04-25T02:01:05;5.18;;;3.00;;
54977;SDS011;40873;47.522;19.106;2023-04-25T02:03:35;5.43;;;3.03;;
54977;SDS011;40873;47.522;19.106;2023-04-25T02:06:02;5.80;;;2.47;;
54977;SDS011;40873;47.522;19.106;2023-04-25T02:08:30;4.28;;;2.47;;
54977;SDS011;40873;47.522;19.106;2023-04-25T02:10:57;5.90;;;2.58;;
54977;SDS011;40873;47.522;19.106;2023-04-25T02:13:24;4.07;;;2.55;;
54977;SDS011;40873;47.522;19.106;2023-04-25T02:15:51;3.63;;;2.88;;
54977;SDS011;40873;47.522;19.106;2023-04-25T02:18:18;5.38;;;2.80;;
54977;SDS011;40873;47.522;19.106;2023-04-25T02:20:47;3.60;;;2.50;;
54977;SDS011;40873;47.522;19.106;2023-04-25T02:23:14;6.90;;;2.90;;
54977;SDS011;40873;47.522;19.106;2023-04-25T02:25:42;4.07;;;2.92;;
54977;SDS011;40873;47.522;19.106;2023-04-25T02:28:09;4.25;;;2.53;;
54977;SDS011;40873;47.522;19.106;2023-04-25T02:30:36;4.40;;;2.35;;
54977;SDS011;40873;47.522;19.106;2023-04-25T02:33:04;3.70;;;2.33;;
54977;SDS011;40873;47.522;19.106;2023-04-25T02:35:31;6.05;;;2.85;;
54977;SDS011;40873;47.522;19.106;2023-04-25T02:37:58;4.05;;;2.20;;
54977;SDS011;40873;47.522;19.106;2023-04-25T02:40:25;3.67;;;2.20;;
54977;SDS011;40873;47.522;19.106;2023-04-25T02:42:52;4.35;;;2.50;;
54977;SDS011;40873;47.522;19.106;2023-04-25T02:45:19;3.08;;;1.92;;
54977;SDS011;40873;47.522;19.106;2023-04-25T02:47:46;4.13;;;1.90;;
54977;SDS011;40873;47.522;19.106;2023-04-25T02:50:13;2.78;;;1.50;;
54977;SDS011;40873;47.522;19.106;2023-04-25T02:52:40;4.00;;;1.60;;
54977;SDS011;40873;47.522;19.106;2023-04-25T02:55:07;2.63;;;1.38;;
54977;SDS011;40873;47.522;19.106;2023-04-25T02:57:35;2.60;;;1.27;;
54977;SDS011;40873;47.522;19.106;2023-04-25T03:00:02;2.97;;;1.65;;
54977;SDS011;40873;47.522;19.106;2023-04-25T03:02:31;2.58;;;1.63;;
54977;SDS011;40873;47.522;19.106;2023-04-25T03:04:58;2.67;;;1.67;;
54977;SDS011;40873;47.522;19.106;2023-04-25T03:07:25;4.13;;;2.17;;
54977;SDS011;40873;47.522;19.106;2023-04-25T03:09:52;3.72;;;2.00;;
54977;SDS011;40873;47.522;19.106;2023-04-25T03:12:19;3.08;;;1.98;;
54977;SDS011;40873;47.522;19.106;2023-04-25T03:14:46;5.85;;;2.20;;
54977;SDS011;40873;47.522;19.106;2023-04-25T03:17:13;4.30;;;2.05;;
54977;SDS011;40873;47.522;19.106;2023-04-25T03:19:40;3.63;;;2.17;;
54977;SDS011;40873;47.522;19.106;2023-04-25T03:22:07;3.80;;;2.25;;
54977;SDS011;40873;47.522;19.106;2023-04-25T03:24:34;4.55;;;3.05;;
54977;SDS011;40873;47.522;19.106;2023-04-25T03:27:01;4.38;;;2.67;;
54977;SDS011;40873;47.522;19.106;2023-04-25T03:29:28;5.00;;;2.70;;
54977;SDS011;40873;47.522;19.106;2023-04-25T03:31:55;4.45;;;2.83;;
54977;SDS011;40873;47.522;19.106;2023-04-25T03:34:22;3.88;;;2.10;;
54977;SDS011;40873;47.522;19.106;2023-04-25T03:36:50;6.60;;;2.63;;
54977;SDS011;40873;47.522;19.106;2023-04-25T03:39:17;5.35;;;2.58;;
54977;SDS011;40873;47.522;19.106;2023-04-25T03:41:44;3.50;;;2.00;;
54977;SDS011;40873;47.522;19.106;2023-04-25T03:44:11;5.60;;;2.00;;
54977;SDS011;40873;47.522;19.106;2023-04-25T03:46:38;3.40;;;2.20;;
54977;SDS011;40873;47.522;19.106;2023-04-25T03:49:05;5.75;;;2.13;;
54977;SDS011;40873;47.522;19.106;2023-04-25T03:51:32;3.85;;;2.35;;
54977;SDS011;40873;47.522;19.106;2023-04-25T03:53:59;6.38;;;2.83;;
54977;SDS011;40873;47.522;19.106;2023-04-25T03:56:26;7.07;;;3.58;;
54977;SDS011;40873;47.522;19.106;2023-04-25T03:58:53;4.18;;;2.40;;
54977;SDS011;40873;47.522;19.106;2023-04-25T04:01:20;6.13;;;2.65;;
54977;SDS011;40873;47.522;19.106;2023-04-25T04:03:46;4.45;;;2.40;;
54977;SDS011;40873;47.522;19.106;2023-04-25T04:06:14;4.53;;;2.50;;
54977;SDS011;40873;47.522;19.106;2023-04-25T04:08:41;3.88;;;2.45;;
54977;SDS011;40873;47.522;19.106;2023-04-25T04:11:08;4.30;;;2.63;;
54977;SDS011;40873;47.522;19.106;2023-04-25T04:13:35;5.38;;;2.83;;
54977;SDS011;40873;47.522;19.106;2023-04-25T04:16:02;6.70;;;3.05;;
54977;SDS011;40873;47.522;19.106;2023-04-25T04:18:30;5.25;;;3.08;;
54977;SDS011;40873;47.522;19.106;2023-04-25T04:20:57;4.70;;;2.75;;
54977;SDS011;40873;47.522;19.106;2023-04-25T04:23:24;7.55;;;3.28;;
54977;SDS011;40873;47.522;19.106;2023-04-25T04:25:54;4.95;;;3.10;;
54977;SDS011;40873;47.522;19.106;2023-04-25T04:28:21;6.10;;;3.63;;
54977;SDS011;40873;47.522;19.106;2023-04-25T04:30:48;5.05;;;2.95;;
54977;SDS011;40873;47.522;19.106;2023-04-25T04:33:17;4.78;;;2.80;;
54977;SDS011;40873;47.522;19.106;2023-04-25T04:35:47;3.33;;;2.40;;
54977;SDS011;40873;47.522;19.106;2023-04-25T04:38:14;5.05;;;2.85;;
54977;SDS011;40873;47.522;19.106;2023-04-25T04:40:42;5.10;;;2.85;;
54977;SDS011;40873;47.522;19.106;2023-04-25T04:43:09;4.28;;;3.10;;
54977;SDS011;40873;47.522;19.106;2023-04-25T04:45:36;5.15;;;2.90;;
54977;SDS011;40873;47.522;19.106;2023-04-25T04:48:06;4.18;;;2.50;;
54977;SDS011;40873;47.522;19.106;2023-04-25T04:50:34;4.68;;;2.88;;
54977;SDS011;40873;47.522;19.106;2023-04-25T04:53:02;5.70;;;3.15;;
54977;SDS011;40873;47.522;19.106;2023-04-25T04:55:29;4.40;;;2.63;;
54977;SDS011;40873;47.522;19.106;2023-04-25T04:57:56;6.18;;;2.75;;
54977;SDS011;40873;47.522;19.106;2023-04-25T05:00:23;4.93;;;3.03;;
54977;SDS011;40873;47.522;19.106;2023-04-25T05:02:51;4.72;;;2.22;;
54977;SDS011;40873;47.522;19.106;2023-04-25T05:05:18;6.80;;;2.83;;
54977;SDS011;40873;47.522;19.106;2023-04-25T05:07:45;6.45;;;3.05;;
54977;SDS011;40873;47.522;19.106;2023-04-25T05:10:12;4.82;;;2.83;;
54977;SDS011;40873;47.522;19.106;2023-04-25T05:12:39;4.68;;;2.80;;
54977;SDS011;40873;47.522;19.106;2023-04-25T05:15:06;6.28;;;3.22;;
54977;SDS011;40873;47.522;19.106;2023-04-25T05:17:33;7.53;;;3.67;;
54977;SDS011;40873;47.522;19.106;2023-04-25T05:20:00;4.55;;;2.80;;
54977;SDS011;40873;47.522;19.106;2023-04-25T05:22:28;3.95;;;2.72;;
54977;SDS011;40873;47.522;19.106;2023-04-25T05:24:55;4.68;;;2.90;;
54977;SDS011;40873;47.522;19.106;2023-04-25T05:27:22;3.75;;;2.72;;
54977;SDS011;40873;47.522;19.106;2023-04-25T05:29:49;5.20;;;2.80;;
54977;SDS011;40873;47.522;19.106;2023-04-25T05:32:15;4.70;;;3.05;;
54977;SDS011;40873;47.522;19.106;2023-04-25T05:34:43;7.38;;;3.50;;
54977;SDS011;40873;47.522;19.106;2023-04-25T05:37:13;6.40;;;3.60;;
54977;SDS011;40873;47.522;19.106;2023-04-25T05:39:40;4.72;;;3.22;;
54977;SDS011;40873;47.522;19.106;2023-04-25T05:42:07;7.25;;;3.88;;
54977;SDS011;40873;47.522;19.106;2023-04-25T05:44:34;5.90;;;3.28;;
54977;SDS011;40873;47.522;19.106;2023-04-25T05:47:01;7.65;;;3.70;;
54977;SDS011;40873;47.522;19.106;2023-04-25T05:49:28;5.28;;;3.33;;
54977;SDS011;40873;47.522;19.106;2023-04-25T05:51:55;5.90;;;2.83;;
54977;SDS011;40873;47.522;19.106;2023-04-25T05:54:22;6.95;;;3.40;;
54977;SDS011;40873;47.522;19.106;2023-04-25T05:56:49;3.92;;;3.00;;
54977;SDS011;40873;47.522;19.106;2023-04-25T05:59:16;6.25;;;3.25;;
54977;SDS011;40873;47.522;19.106;2023-04-25T06:01:43;10.05;;;3.42;;
54977;SDS011;40873;47.522;19.106;2023-04-25T06:04:10;7.63;;;4.50;;
54977;SDS011;40873;47.522;19.106;2023-04-25T06:06:37;6.32;;;4.00;;
54977;SDS011;40873;47.522;19.106;2023-04-25T06:09:04;5.80;;;3.38;;
54977;SDS011;40873;47.522;19.106;2023-04-25T06:11:31;9.77;;;4.00;;
54977;SDS011;40873;47.522;19.106;2023-04-25T06:13:58;5.65;;;3.45;;
54977;SDS011;40873;47.522;19.106;2023-04-25T06:16:25;5.65;;;3.83;;
54977;SDS011;40873;47.522;19.106;2023-04-25T06:18:52;6.38;;;4.13;;
54977;SDS011;40873;47.522;19.106;2023-04-25T06:21:19;8.80;;;4.18;;
54977;SDS011;40873;47.522;19.106;2023-04-25T06:23:46;10.50;;;4.60;;
54977;SDS011;40873;47.522;19.106;2023-04-25T06:26:14;7.70;;;3.83;;
54977;SDS011;40873;47.522;19.106;2023-04-25T06:28:41;7.15;;;4.13;;
54977;SDS011;40873;47.522;19.106;2023-04-25T06:31:11;7.60;;;4.10;;
54977;SDS011;40873;47.522;19.106;2023-04-25T06:33:38;8.13;;;4.25;;
54977;SDS011;40873;47.522;19.106;2023-04-25T06:36:05;8.32;;;4.60;;
54977;SDS011;40873;47.522;19.106;2023-04-25T06:38:32;7.32;;;5.20;;
54977;SDS011;40873;47.522;19.106;2023-04-25T06:41:01;7.70;;;4.95;;
54977;SDS011;40873;47.522;19.106;2023-04-25T06:43:28;6.32;;;4.13;;
54977;SDS011;40873;47.522;19.106;2023-04-25T06:45:59;8.82;;;5.13;;
54977;SDS011;40873;47.522;19.106;2023-04-25T06:48:27;6.07;;;4.47;;
54977;SDS011;40873;47.522;19.106;2023-04-25T06:50:54;8.65;;;5.22;;
54977;SDS011;40873;47.522;19.106;2023-04-25T06:53:21;6.88;;;4.80;;
54977;SDS011;40873;47.522;19.106;2023-04-25T06:55:48;9.70;;;5.20;;
54977;SDS011;40873;47.522;19.106;2023-04-25T06:58:15;10.20;;;4.65;;
54977;SDS011;40873;47.522;19.106;2023-04-25T07:00:42;6.80;;;4.53;;
54977;SDS011;40873;47.522;19.106;2023-04-25T07:03:09;10.23;;;4.75;;
54977;SDS011;40873;47.522;19.106;2023-04-25T07:05:36;8.05;;;4.47;;
54977;SDS011;40873;47.522;19.106;2023-04-25T07:08:03;6.97;;;4.63;;
54977;SDS011;40873;47.522;19.106;2023-04-25T07:10:30;7.00;;;4.32;;
54977;SDS011;40873;47.522;19.106;2023-04-25T07:12:57;7.85;;;4.88;;
54977;SDS011;40873;47.522;19.106;2023-04-25T07:15:24;6.72;;;4.63;;
54977;SDS011;40873;47.522;19.106;2023-04-25T07:17:51;8.25;;;4.22;;
54977;SDS011;40873;47.522;19.106;2023-04-25T07:20:18;8.27;;;4.30;;
54977;SDS011;40873;47.522;19.106;2023-04-25T07:22:45;8.73;;;4.50;;
54977;SDS011;40873;47.522;19.106;2023-04-25T07:25:12;6.32;;;4.30;;
54977;SDS011;40873;47.522;19.106;2023-04-25T07:27:39;6.07;;;4.22;;
54977;SDS011;40873;47.522;19.106;2023-04-25T07:30:07;8.07;;;4.20;;
54977;SDS011;40873;47.522;19.106;2023-04-25T07:32:34;7.43;;;4.75;;
54977;SDS011;40873;47.522;19.106;2023-04-25T07:35:01;9.35;;;4.07;;
54977;SDS011;40873;47.522;19.106;2023-04-25T07:37:29;7.30;;;4.65;;
54977;SDS011;40873;47.522;19.106;2023-04-25T07:39:56;7.20;;;4.25;;
54977;SDS011;40873;47.522;19.106;2023-04-25T07:42:23;9.13;;;4.90;;
54977;SDS011;40873;47.522;19.106;2023-04-25T07:44:50;7.63;;;4.38;;
54977;SDS011;40873;47.522;19.106;2023-04-25T07:47:18;6.57;;;4.43;;
54977;SDS011;40873;47.522;19.106;2023-04-25T07:49:48;5.43;;;3.55;;
54977;SDS011;40873;47.522;19.106;2023-04-25T07:52:15;7.13;;;3.42;;
54977;SDS011;40873;47.522;19.106;2023-04-25T07:54:42;5.38;;;3.50;;
54977;SDS011;40873;47.522;19.106;2023-04-25T07:57:09;6.90;;;3.78;;
54977;SDS011;40873;47.522;19.106;2023-04-25T07:59:36;5.90;;;4.03;;
54977;SDS011;40873;47.522;19.106;2023-04-25T08:02:03;6.70;;;4.07;;
54977;SDS011;40873;47.522;19.106;2023-04-25T08:04:30;5.80;;;3.97;;
54977;SDS011;40873;47.522;19.106;2023-04-25T08:06:57;5.47;;;3.67;;
54977;SDS011;40873;47.522;19.106;2023-04-25T08:09:24;5.80;;;3.88;;
54977;SDS011;40873;47.522;19.106;2023-04-25T08:11:51;5.80;;;3.90;;
54977;SDS011;40873;47.522;19.106;2023-04-25T08:14:18;5.10;;;3.05;;
54977;SDS011;40873;47.522;19.106;2023-04-25T08:16:45;5.10;;;3.08;;
54977;SDS011;40873;47.522;19.106;2023-04-25T08:19:12;4.32;;;2.90;;
54977;SDS011;40873;47.522;19.106;2023-04-25T08:21:39;4.07;;;2.75;;
54977;SDS011;40873;47.522;19.106;2023-04-25T08:24:06;5.07;;;3.08;;
54977;SDS011;40873;47.522;19.106;2023-04-25T08:26:33;4.35;;;3.00;;
54977;SDS011;40873;47.522;19.106;2023-04-25T08:29:01;4.63;;;2.55;;
54977;SDS011;40873;47.522;19.106;2023-04-25T08:31:28;9.48;;;3.78;;
54977;SDS011;40873;47.522;19.106;2023-04-25T08:33:55;4.00;;;2.35;;
54977;SDS011;40873;47.522;19.106;2023-04-25T08:36:22;6.20;;;2.83;;
54977;SDS011;40873;47.522;19.106;2023-04-25T08:39:04;4.82;;;2.60;;
54977;SDS011;40873;47.522;19.106;2023-04-25T08:41:31;4.10;;;2.83;;
54977;SDS011;40873;47.522;19.106;2023-04-25T08:43:58;4.70;;;3.13;;
54977;SDS011;40873;47.522;19.106;2023-04-25T08:46:27;4.22;;;2.63;;
54977;SDS011;40873;47.522;19.106;2023-04-25T08:48:56;5.60;;;2.90;;
54977;SDS011;40873;47.522;19.106;2023-04-25T08:51:27;5.18;;;2.40;;
54977;SDS011;40873;47.522;19.106;2023-04-25T08:54:03;3.05;;;2.10;;
54977;SDS011;40873;47.522;19.106;2023-04-25T08:57:01;3.25;;;2.20;;
54977;SDS011;40873;47.522;19.106;2023-04-25T08:59:31;4.28;;;2.72;;
54977;SDS011;40873;47.522;19.106;2023-04-25T09:01:59;4.35;;;2.55;;
54977;SDS011;40873;47.522;19.106;2023-04-25T09:04:27;6.20;;;2.80;;
54977;SDS011;40873;47.522;19.106;2023-04-25T09:06:54;4.95;;;2.75;;
54977;SDS011;40873;47.522;19.106;2023-04-25T09:09:21;6.07;;;3.97;;
54977;SDS011;40873;47.522;19.106;2023-04-25T09:11:48;7.43;;;3.38;;
54977;SDS011;40873;47.522;19.106;2023-04-25T09:14:19;5.90;;;3.42;;
54977;SDS011;40873;47.522;19.106;2023-04-25T09:19:24;4.53;;;3.00;;
54977;SDS011;40873;47.522;19.106;2023-04-25T09:22:06;4.95;;;2.67;;
54977;SDS011;40873;47.522;19.106;2023-04-25T09:27:07;3.42;;;2.38;;
54977;SDS011;40873;47.522;19.106;2023-04-25T09:29:37;8.05;;;3.08;;
54977;SDS011;40873;47.522;19.106;2023-04-25T09:32:13;4.45;;;2.78;;
54977;SDS011;40873;47.522;19.106;2023-04-25T09:34:52;3.60;;;2.67;;
54977;SDS011;40873;47.522;19.106;2023-04-25T09:37:24;4.72;;;2.67;;
54977;SDS011;40873;47.522;19.106;2023-04-25T09:39:56;3.70;;;2.30;;
54977;SDS011;40873;47.522;19.106;2023-04-25T09:42:26;6.75;;;2.35;;
54977;SDS011;40873;47.522;19.106;2023-04-25T09:44:56;3.03;;;1.90;;
54977;SDS011;40873;47.522;19.106;2023-04-25T09:47:24;5.82;;;1.83;;
54977;SDS011;40873;47.522;19.106;2023-04-25T09:49:52;3.97;;;1.90;;
54977;SDS011;40873;47.522;19.106;2023-04-25T09:52:21;3.35;;;1.50;;
54977;SDS011;40873;47.522;19.106;2023-04-25T09:54:51;7.82;;;1.95;;
54977;SDS011;40873;47.522;19.106;2023-04-25T09:57:24;3.30;;;1.73;;
54977;SDS011;40873;47.522;19.106;2023-04-25T09:59:53;3.13;;;1.90;;
54977;SDS011;40873;47.522;19.106;2023-04-25T10:02:22;3.75;;;1.38;;
54977;SDS011;40873;47.522;19.106;2023-04-25T10:04:54;2.40;;;1.33;;
54977;SDS011;40873;47.522;19.106;2023-04-25T10:07:23;3.28;;;1.38;;
54977;SDS011;40873;47.522;19.106;2023-04-25T10:10:02;3.65;;;1.25;;
54977;SDS011;40873;47.522;19.106;2023-04-25T10:12:33;2.75;;;1.30;;
54977;SDS011;40873;47.522;19.106;2023-04-25T10:15:01;2.22;;;1.15;;
54977;SDS011;40873;47.522;19.106;2023-04-25T10:17:29;3.38;;;1.60;;
54977;SDS011;40873;47.522;19.106;2023-04-25T10:19:58;1.65;;;0.93;;
54977;SDS011;40873;47.522;19.106;2023-04-25T10:22:34;2.90;;;1.33;;
54977;SDS011;40873;47.522;19.106;2023-04-25T10:25:04;4.40;;;1.60;;
54977;SDS011;40873;47.522;19.106;2023-04-25T10:27:33;5.15;;;1.25;;
54977;SDS011;40873;47.522;19.106;2023-04-25T10:30:02;4.03;;;1.10;;
54977;SDS011;40873;47.522;19.106;2023-04-25T10:32:42;4.55;;;2.05;;
54977;SDS011;40873;47.522;19.106;2023-04-25T10:35:17;4.20;;;1.85;;
54977;SDS011;40873;47.522;19.106;2023-04-25T10:38:04;5.50;;;1.20;;
54977;SDS011;40873;47.522;19.106;2023-04-25T10:40:40;3.15;;;1.35;;
54977;SDS011;40873;47.522;19.106;2023-04-25T10:46:16;3.58;;;1.48;;
54977;SDS011;40873;47.522;19.106;2023-04-25T10:48:54;2.33;;;0.75;;
54977;SDS011;40873;47.522;19.106;2023-04-25T10:51:32;1.20;;;0.70;;
54977;SDS011;40873;47.522;19.106;2023-04-25T10:54:20;0.85;;;0.50;;
54977;SDS011;40873;47.522;19.106;2023-04-25T10:56:51;2.20;;;0.98;;
54977;SDS011;40873;47.522;19.106;2023-04-25T10:59:19;2.72;;;1.30;;
54977;SDS011;40873;47.522;19.106;2023-04-25T11:01:49;1.15;;;0.50;;
54977;SDS011;40873;47.522;19.106;2023-04-25T11:04:22;1.65;;;0.70;;
54977;SDS011;40873;47.522;19.106;2023-04-25T11:09:34;2.58;;;0.50;;
54977;SDS011;40873;47.522;19.106;2023-04-25T11:12:02;2.17;;;0.75;;
54977;SDS011;40873;47.522;19.106;2023-04-25T11:14:29;1.15;;;0.50;;
54977;SDS011;40873;47.522;19.106;2023-04-25T11:16:56;0.93;;;0.40;;
54977;SDS011;40873;47.522;19.106;2023-04-25T11:19:26;0.55;;;0.30;;
54977;SDS011;40873;47.522;19.106;2023-04-25T11:21:55;0.40;;;0.30;;
54977;SDS011;40873;47.522;19.106;2023-04-25T11:24:30;1.55;;;0.50;;
54977;SDS011;40873;47.522;19.106;2023-04-25T11:27:01;0.73;;;0.25;;
54977;SDS011;40873;47.522;19.106;2023-04-25T11:29:30;0.25;;;0.10;;
54977;SDS011;40873;47.522;19.106;2023-04-25T11:32:00;1.45;;;0.20;;
54977;SDS011;40873;47.522;19.106;2023-04-25T11:34:31;0.60;;;0.30;;
54977;SDS011;40873;47.522;19.106;2023-04-25T11:37:00;0.38;;;0.30;;
54977;SDS011;40873;47.522;19.106;2023-04-25T11:39:28;0.88;;;0.30;;
54977;SDS011;40873;47.522;19.106;2023-04-25T11:41:56;0.90;;;0.22;;
54977;SDS011;40873;47.522;19.106;2023-04-25T11:44:23;0.20;;;0.20;;
54977;SDS011;40873;47.522;19.106;2023-04-25T11:46:50;0.40;;;0.30;;
54977;SDS011;40873;47.522;19.106;2023-04-25T11:49:17;0.98;;;0.45;;
54977;SDS011;40873;47.522;19.106;2023-04-25T11:51:45;0.38;;;0.20;;
54977;SDS011;40873;47.522;19.106;2023-04-25T11:54:14;0.85;;;0.30;;
54977;SDS011;40873;47.522;19.106;2023-04-25T11:56:45;0.88;;;0.40;;
54977;SDS011;40873;47.522;19.106;2023-04-25T11:59:12;0.32;;;0.20;;
54977;SDS011;40873;47.522;19.106;2023-04-25T12:01:41;1.88;;;0.47;;
54977;SDS011;40873;47.522;19.106;2023-04-25T12:06:42;2.55;;;0.38;;
54977;SDS011;40873;47.522;19.106;2023-04-25T12:09:10;1.23;;;0.50;;
54977;SDS011;40873;47.522;19.106;2023-04-25T12:11:47;0.50;;;0.30;;
54977;SDS011;40873;47.522;19.106;2023-04-25T12:14:25;0.93;;;0.40;;
54977;SDS011;40873;47.522;19.106;2023-04-25T12:16:57;1.33;;;0.30;;
54977;SDS011;40873;47.522;19.106;2023-04-25T12:19:25;0.82;;;0.47;;
54977;SDS011;40873;47.522;19.106;2023-04-25T12:21:53;2.88;;;0.40;;
54977;SDS011;40873;47.522;19.106;2023-04-25T12:24:25;5.50;;;0.60;;
54977;SDS011;40873;47.522;19.106;2023-04-25T12:29:31;1.40;;;0.90;;
54977;SDS011;40873;47.522;19.106;2023-04-25T12:32:14;0.70;;;0.40;;
54977;SDS011;40873;47.522;19.106;2023-04-25T12:34:44;1.67;;;0.90;;
54977;SDS011;40873;47.522;19.106;2023-04-25T12:37:11;0.80;;;0.60;;
54977;SDS011;40873;47.522;19.106;2023-04-25T12:39:39;0.90;;;0.43;;
54977;SDS011;40873;47.522;19.106;2023-04-25T12:42:06;1.20;;;0.50;;
54977;SDS011;40873;47.522;19.106;2023-04-25T12:44:35;0.70;;;0.45;;
54977;SDS011;40873;47.522;19.106;2023-04-25T12:47:03;1.27;;;0.70;;
54977;SDS011;40873;47.522;19.106;2023-04-25T12:49:30;1.08;;;0.90;;
54977;SDS011;40873;47.522;19.106;2023-04-25T12:51:58;1.27;;;0.60;;
54977;SDS011;40873;47.522;19.106;2023-04-25T12:54:25;2.17;;;0.52;;
54977;SDS011;40873;47.522;19.106;2023-04-25T12:56:52;1.55;;;0.50;;
54977;SDS011;40873;47.522;19.106;2023-04-25T12:59:19;0.80;;;0.40;;
54977;SDS011;40873;47.522;19.106;2023-04-25T13:01:47;2.40;;;0.40;;
54977;SDS011;40873;47.522;19.106;2023-04-25T13:04:15;1.10;;;0.57;;
54977;SDS011;40873;47.522;19.106;2023-04-25T13:06:43;5.95;;;0.65;;
54977;SDS011;40873;47.522;19.106;2023-04-25T13:09:13;1.15;;;0.70;;
54977;SDS011;40873;47.522;19.106;2023-04-25T13:11:40;1.02;;;0.60;;
54977;SDS011;40873;47.522;19.106;2023-04-25T13:14:07;0.85;;;0.68;;
54977;SDS011;40873;47.522;19.106;2023-04-25T13:16:35;0.95;;;0.47;;
54977;SDS011;40873;47.522;19.106;2023-04-25T13:19:01;1.40;;;0.70;;
54977;SDS011;40873;47.522;19.106;2023-04-25T13:21:30;2.78;;;0.77;;
54977;SDS011;40873;47.522;19.106;2023-04-25T13:23:59;1.25;;;0.68;;
54977;SDS011;40873;47.522;19.106;2023-04-25T13:26:27;1.25;;;0.70;;
54977;SDS011;40873;47.522;19.106;2023-04-25T13:28:53;1.05;;;0.70;;
54977;SDS011;40873;47.522;19.106;2023-04-25T13:31:21;1.13;;;0.65;;
54977;SDS011;40873;47.522;19.106;2023-04-25T13:33:47;2.38;;;0.70;;
54977;SDS011;40873;47.522;19.106;2023-04-25T13:36:15;1.45;;;0.70;;
54977;SDS011;40873;47.522;19.106;2023-04-25T13:38:42;1.45;;;0.68;;
54977;SDS011;40873;47.522;19.106;2023-04-25T13:41:10;1.23;;;0.77;;
54977;SDS011;40873;47.522;19.106;2023-04-25T13:43:42;0.93;;;0.63;;
54977;SDS011;40873;47.522;19.106;2023-04-25T13:46:09;1.38;;;0.70;;
54977;SDS011;40873;47.522;19.106;2023-04-25T13:48:56;2.40;;;0.70;;
54977;SDS011;40873;47.522;19.106;2023-04-25T13:51:37;0.90;;;0.63;;
54977;SDS011;40873;47.522;19.106;2023-04-25T13:54:04;1.23;;;0.50;;
54977;SDS011;40873;47.522;19.106;2023-04-25T13:56:31;0.90;;;0.50;;
54977;SDS011;40873;47.522;19.106;2023-04-25T13:58:58;1.10;;;0.55;;
54977;SDS011;40873;47.522;19.106;2023-04-25T14:01:25;0.95;;;0.50;;
54977;SDS011;40873;47.522;19.106;2023-04-25T14:03:54;0.40;;;0.40;;
54977;SDS011;40873;47.522;19.106;2023-04-25T14:06:21;1.10;;;0.70;;
54977;SDS011;40873;47.522;19.106;2023-04-25T14:08:50;0.93;;;0.50;;
54977;SDS011;40873;47.522;19.106;2023-04-25T14:11:17;1.50;;;0.60;;
54977;SDS011;40873;47.522;19.106;2023-04-25T14:13:45;1.05;;;0.60;;
54977;SDS011;40873;47.522;19.106;2023-04-25T14:16:12;1.58;;;0.60;;
54977;SDS011;40873;47.522;19.106;2023-04-25T14:18:39;2.38;;;0.80;;
54977;SDS011;40873;47.522;19.106;2023-04-25T14:21:06;4.30;;;0.90;;
54977;SDS011;40873;47.522;19.106;2023-04-25T14:23:33;1.75;;;0.70;;
54977;SDS011;40873;47.522;19.106;2023-04-25T14:26:00;1.55;;;0.60;;
54977;SDS011;40873;47.522;19.106;2023-04-25T14:28:28;2.15;;;0.65;;
54977;SDS011;40873;47.522;19.106;2023-04-25T14:30:55;2.42;;;0.70;;
54977;SDS011;40873;47.522;19.106;2023-04-25T14:33:22;1.50;;;0.77;;
54977;SDS011;40873;47.522;19.106;2023-04-25T14:35:50;2.78;;;0.60;;
54977;SDS011;40873;47.522;19.106;2023-04-25T14:38:17;1.92;;;0.80;;
54977;SDS011;40873;47.522;19.106;2023-04-25T14:40:45;3.95;;;0.85;;
54977;SDS011;40873;47.522;19.106;2023-04-25T14:43:11;1.83;;;0.70;;
54977;SDS011;40873;47.522;19.106;2023-04-25T14:45:39;1.17;;;0.80;;
54977;SDS011;40873;47.522;19.106;2023-04-25T14:48:05;1.25;;;0.63;;
54977;SDS011;40873;47.522;19.106;2023-04-25T14:50:33;0.88;;;0.50;;
54977;SDS011;40873;47.522;19.106;2023-04-25T14:53:00;0.82;;;0.50;;
54977;SDS011;40873;47.522;19.106;2023-04-25T14:55:27;1.55;;;0.60;;